createdAt,value
2019-05-28T00:01:51.452Z,14.70
2019-05-28T00:04:19.947Z,14.60
2019-05-28T00:06:48.346Z,14.60
2019-05-28T00:09:16.918Z,14.60
2019-05-28T00:11:45.321Z,14.50
2019-05-28T00:14:13.773Z,14.50
2019-05-28T00:16:42.253Z,14.50
2019-05-28T00:19:10.701Z,14.50
2019-05-28T00:21:39.145Z,14.60
2019-05-28T00:24:07.674Z,14.70
2019-05-28T00:26:36.152Z,14.70
2019-05-28T00:29:04.776Z,14.80
2019-05-28T00:31:33.295Z,14.90
2019-05-28T00:34:01.740Z,14.90
2019-05-28T00:36:30.217Z,14.90
2019-05-28T00:38:58.664Z,14.90
2019-05-28T00:41:27.083Z,15.10
2019-05-28T00:43:55.521Z,15.20
2019-05-28T00:46:24.017Z,15.30
2019-05-28T00:48:52.613Z,15.20
2019-05-28T00:51:21.032Z,15.20
2019-05-28T00:53:49.472Z,15.30
2019-05-28T00:56:18.290Z,15.30
2019-05-28T00:58:47.478Z,15.40
2019-05-28T01:01:15.953Z,15.30
2019-05-28T01:03:44.373Z,15.30
2019-05-28T01:06:12.806Z,15.20
2019-05-28T01:08:41.220Z,15.10
2019-05-28T01:11:09.661Z,15.00
2019-05-28T01:13:38.194Z,15.00
2019-05-28T01:16:06.688Z,14.90
2019-05-28T01:18:35.109Z,14.90
2019-05-28T01:21:03.568Z,14.90
2019-05-28T01:23:31.972Z,14.90
2019-05-28T01:26:01.337Z,14.70
2019-05-28T01:28:29.757Z,14.70
2019-05-28T01:31:00.824Z,14.70
2019-05-28T01:33:28.346Z,14.80
2019-05-28T01:35:56.771Z,14.80
2019-05-28T01:38:25.212Z,14.80
2019-05-28T01:40:53.647Z,14.80
2019-05-28T01:43:22.061Z,14.80
2019-05-28T01:45:50.509Z,14.60
2019-05-28T01:48:18.940Z,14.50
2019-05-28T01:50:47.441Z,14.50
2019-05-28T01:53:15.904Z,14.50
2019-05-28T01:55:44.345Z,14.50
2019-05-28T01:58:12.776Z,14.60
2019-05-28T02:00:41.200Z,14.50
2019-05-28T02:03:09.641Z,14.50
2019-05-28T02:05:38.056Z,14.50
2019-05-28T02:08:06.589Z,14.60
2019-05-28T02:10:35.007Z,14.60
2019-05-28T02:13:03.724Z,14.70
2019-05-28T02:15:32.194Z,14.60
2019-05-28T02:18:00.661Z,14.60
2019-05-28T02:20:29.132Z,14.60
2019-05-28T02:22:57.577Z,14.60
2019-05-28T02:25:26.588Z,14.60
2019-05-28T02:27:55.039Z,14.40
2019-05-28T02:30:23.914Z,14.10
2019-05-28T02:32:52.720Z,14.00
2019-05-28T02:35:21.405Z,13.90
2019-05-28T02:37:49.844Z,13.80
2019-05-28T02:40:18.625Z,13.70
2019-05-28T02:42:47.046Z,13.70
2019-05-28T02:45:16.273Z,13.70
2019-05-28T02:47:44.991Z,13.70
2019-05-28T02:50:15.618Z,13.60
2019-05-28T02:52:45.130Z,13.60
2019-05-28T02:55:13.992Z,13.60
2019-05-28T02:57:44.151Z,13.60
2019-05-28T03:00:17.405Z,13.60
2019-05-28T03:02:48.092Z,13.70
2019-05-28T03:05:17.264Z,13.70
2019-05-28T03:07:48.665Z,13.80
2019-05-28T03:10:57.658Z,13.80
2019-05-28T03:13:00.127Z,13.90
2019-05-28T03:15:29.005Z,13.80
2019-05-28T03:17:57.612Z,13.60
2019-05-28T03:20:26.501Z,13.50
2019-05-28T03:22:55.596Z,13.60
2019-05-28T03:25:24.550Z,13.70
2019-05-28T03:27:53.088Z,13.70
2019-05-28T03:30:21.704Z,13.60
2019-05-28T03:32:50.278Z,13.40
2019-05-28T03:35:19.278Z,13.40
2019-05-28T03:37:48.639Z,13.50
2019-05-28T03:40:20.242Z,13.60
2019-05-28T03:42:48.661Z,13.60
2019-05-28T03:45:17.341Z,13.60
2019-05-28T03:47:45.764Z,13.60
2019-05-28T03:50:14.520Z,13.60
2019-05-28T03:52:42.948Z,13.60
2019-05-28T03:55:11.461Z,13.50
2019-05-28T03:57:39.895Z,13.50
2019-05-28T04:00:08.869Z,13.50
2019-05-28T04:02:37.355Z,13.50
2019-05-28T04:05:06.432Z,13.40
2019-05-28T04:07:34.891Z,13.20
2019-05-28T04:10:04.099Z,13.20
2019-05-28T04:12:32.594Z,13.20
2019-05-28T04:15:01.037Z,13.20
2019-05-28T04:17:29.462Z,13.30
2019-05-28T04:19:57.913Z,13.40
2019-05-28T04:22:26.341Z,13.40
2019-05-28T04:24:54.841Z,13.40
2019-05-28T04:27:23.295Z,13.40
2019-05-28T04:29:51.722Z,13.30
2019-05-28T04:32:20.146Z,13.20
2019-05-28T04:34:48.565Z,13.10
2019-05-28T04:37:17.085Z,13.10
2019-05-28T04:39:45.501Z,13.00
2019-05-28T04:42:14.011Z,13.10
2019-05-28T04:44:42.436Z,13.00
2019-05-28T04:47:10.917Z,12.90
2019-05-28T04:49:39.335Z,13.00
2019-05-28T04:52:07.773Z,13.00
2019-05-28T04:54:36.201Z,13.00
2019-05-28T04:57:04.716Z,13.10
2019-05-28T04:59:33.129Z,13.20
2019-05-28T05:02:01.565Z,13.40
2019-05-28T05:04:29.992Z,13.50
2019-05-28T05:06:58.534Z,13.50
2019-05-28T05:09:26.966Z,13.60
2019-05-28T05:11:55.426Z,13.60
2019-05-28T05:14:23.960Z,13.60
2019-05-28T05:16:52.478Z,13.60
2019-05-28T05:19:21.120Z,13.60
2019-05-28T05:21:49.550Z,13.70
2019-05-28T05:24:17.999Z,13.60
2019-05-28T05:26:46.429Z,13.60
2019-05-28T05:29:14.850Z,13.60
2019-05-28T05:31:43.285Z,13.80
2019-05-28T05:34:11.702Z,14.00
2019-05-28T05:36:40.141Z,14.00
2019-05-28T05:39:09.323Z,13.90
2019-05-28T05:41:37.966Z,13.80
2019-05-28T05:44:06.469Z,13.70
2019-05-28T05:46:34.897Z,13.60
2019-05-28T05:49:03.505Z,13.50
2019-05-28T05:51:31.950Z,13.60
2019-05-28T05:54:00.402Z,13.70
2019-05-28T05:56:28.836Z,13.80
2019-05-28T05:58:57.273Z,13.90
2019-05-28T06:01:25.707Z,13.90
2019-05-28T06:03:54.193Z,13.90
2019-05-28T06:06:22.623Z,14.00
2019-05-28T06:08:51.068Z,14.00
2019-05-28T06:11:19.495Z,14.10
2019-05-28T06:13:47.998Z,14.10
2019-05-28T06:16:16.420Z,14.30
2019-05-28T06:18:44.881Z,14.20
2019-05-28T06:21:18.491Z,14.20
2019-05-28T06:23:43.557Z,14.20
2019-05-28T06:26:12.039Z,14.20
2019-05-28T06:28:40.503Z,14.20
2019-05-28T06:31:08.916Z,14.20
2019-05-28T06:33:37.362Z,14.20
2019-05-28T06:36:05.846Z,14.30
2019-05-28T06:38:34.281Z,14.40
2019-05-28T06:41:02.726Z,14.40
2019-05-28T06:43:31.196Z,14.40
2019-05-28T06:45:59.653Z,14.40
2019-05-28T06:48:28.121Z,14.40
2019-05-28T06:50:56.658Z,14.30
2019-05-28T06:53:25.137Z,14.40
2019-05-28T06:55:53.567Z,14.50
2019-05-28T06:58:37.836Z,14.50
2019-05-28T07:00:52.257Z,14.50
2019-05-28T07:03:20.862Z,14.50
2019-05-28T07:06:05.362Z,14.50
2019-05-28T07:08:19.470Z,14.60
2019-05-28T07:10:57.299Z,14.60
2019-05-28T07:13:18.045Z,14.50
2019-05-28T07:15:46.477Z,14.50
2019-05-28T07:18:14.914Z,14.50
2019-05-28T07:20:43.349Z,14.50
2019-05-28T07:23:11.773Z,14.50
2019-05-28T07:25:40.208Z,14.50
2019-05-28T07:28:11.631Z,14.60
2019-05-28T07:30:38.858Z,14.60
2019-05-28T07:33:07.332Z,14.60
2019-05-28T07:35:45.457Z,14.70
2019-05-28T07:38:06.025Z,14.60
2019-05-28T07:40:34.474Z,14.70
2019-05-28T07:43:02.978Z,14.70
2019-05-28T07:45:31.737Z,14.70
2019-05-28T07:48:00.325Z,14.60
2019-05-28T07:50:28.763Z,14.70
2019-05-28T07:52:57.182Z,14.70
2019-05-28T07:55:25.596Z,14.60
2019-05-28T07:57:54.035Z,14.70
2019-05-28T08:00:36.945Z,14.70
2019-05-28T08:03:06.268Z,14.80
2019-05-28T08:05:35.336Z,14.80
2019-05-28T08:08:07.312Z,14.80
2019-05-28T08:10:35.873Z,14.80
2019-05-28T08:13:06.061Z,14.90
2019-05-28T08:15:35.829Z,14.90
2019-05-28T08:18:05.320Z,14.90
2019-05-28T08:20:34.274Z,14.70
2019-05-28T08:23:02.901Z,14.60
2019-05-28T08:25:46.267Z,14.60
2019-05-28T08:28:18.607Z,14.60
2019-05-28T08:30:32.153Z,14.60
2019-05-28T08:33:00.670Z,14.60
2019-05-28T08:35:29.161Z,14.60
2019-05-28T08:37:57.696Z,14.60
2019-05-28T08:40:26.270Z,14.70
2019-05-28T08:42:54.811Z,14.70
2019-05-28T08:45:23.527Z,14.70
2019-05-28T08:47:52.061Z,14.80
2019-05-28T08:50:33.852Z,14.80
2019-05-28T08:52:50.870Z,14.90
2019-05-28T08:55:19.360Z,14.90
2019-05-28T08:57:47.857Z,14.80
2019-05-28T09:00:35.989Z,14.80
2019-05-28T09:03:05.324Z,14.90
2019-05-28T09:05:33.830Z,14.90
2019-05-28T09:08:02.310Z,14.90
2019-05-28T09:10:30.853Z,14.90
2019-05-28T09:12:59.326Z,15.10
2019-05-28T09:15:27.905Z,15.00
2019-05-28T09:17:56.337Z,15.00
2019-05-28T09:20:24.830Z,15.10
2019-05-28T09:22:53.247Z,15.10
2019-05-28T09:25:21.685Z,15.10
2019-05-28T09:27:50.147Z,15.20
2019-05-28T09:30:20.214Z,15.10
2019-05-28T09:32:48.843Z,15.10
2019-05-28T09:35:17.873Z,15.10
2019-05-28T09:37:46.363Z,15.10
2019-05-28T09:40:15.060Z,15.20
2019-05-28T09:42:43.469Z,15.20
2019-05-28T09:45:22.535Z,15.10
2019-05-28T09:47:42.942Z,15.20
2019-05-28T09:50:29.328Z,15.40
2019-05-28T09:52:53.687Z,15.20
2019-05-28T09:55:13.733Z,15.10
2019-05-28T09:57:47.500Z,15.10
2019-05-28T10:00:16.569Z,15.20
2019-05-28T10:02:45.143Z,15.30
2019-05-28T10:05:14.099Z,15.40
2019-05-28T10:07:42.534Z,15.50
2019-05-28T10:10:11.421Z,15.50
2019-05-28T10:12:39.980Z,15.70
2019-05-28T10:15:09.260Z,15.90
2019-05-28T10:17:37.724Z,16.10
2019-05-28T10:20:07.370Z,16.20
2019-05-28T10:22:35.902Z,16.20
2019-05-28T10:25:06.959Z,16.20
2019-05-28T10:27:35.435Z,16.40
2019-05-28T10:30:06.772Z,16.40
2019-05-28T10:32:35.223Z,16.40
2019-05-28T10:35:05.609Z,16.30
2019-05-28T10:37:34.157Z,16.20
2019-05-28T10:40:03.276Z,16.20
2019-05-28T10:42:31.982Z,16.30
2019-05-28T10:45:00.451Z,16.30
2019-05-28T10:47:28.910Z,16.20
2019-05-28T10:49:57.336Z,16.30
2019-05-28T10:52:25.816Z,16.40
2019-05-28T10:54:54.297Z,16.50
2019-05-28T10:57:22.715Z,16.60
2019-05-28T10:59:51.130Z,16.60
2019-05-28T11:02:19.576Z,16.50
2019-05-28T11:04:48.007Z,16.50
2019-05-28T11:07:16.509Z,16.60
2019-05-28T11:09:44.910Z,16.70
2019-05-28T11:12:13.368Z,16.90
2019-05-28T11:14:41.859Z,17.00
2019-05-28T11:17:10.385Z,17.10
2019-05-28T11:19:38.804Z,17.30
2019-05-28T11:22:07.279Z,17.40
2019-05-28T11:24:35.743Z,17.30
2019-05-28T11:27:04.842Z,17.40
2019-05-28T11:29:33.256Z,17.40
2019-05-28T11:32:01.693Z,17.60
2019-05-28T11:34:30.099Z,17.60
2019-05-28T11:37:08.756Z,17.70
2019-05-28T11:39:28.796Z,18.00
2019-05-28T11:41:57.288Z,18.10
2019-05-28T11:44:25.709Z,18.00
2019-05-28T11:46:54.181Z,18.20
2019-05-28T11:49:22.612Z,18.00
2019-05-28T11:51:51.032Z,18.00
2019-05-28T11:54:19.489Z,17.90
2019-05-28T11:56:47.933Z,17.70
2019-05-28T11:59:16.454Z,17.50
2019-05-28T12:01:44.888Z,17.30
2019-05-28T12:04:13.357Z,17.30
2019-05-28T12:06:41.826Z,17.10
2019-05-28T12:09:10.274Z,17.10
2019-05-28T12:11:38.714Z,17.10
2019-05-28T12:14:07.210Z,17.10
2019-05-28T12:16:35.670Z,17.20
2019-05-28T12:19:04.244Z,17.30
2019-05-28T12:21:32.742Z,17.50
2019-05-28T12:24:01.190Z,17.80
2019-05-28T12:26:29.783Z,18.10
2019-05-28T12:28:58.281Z,18.10
2019-05-28T12:31:26.829Z,17.90
2019-05-28T12:33:55.278Z,17.80
2019-05-28T12:36:23.688Z,18.10
2019-05-28T12:38:52.153Z,18.20
2019-05-28T12:41:20.669Z,18.50
2019-05-28T12:43:49.111Z,18.60
2019-05-28T12:46:17.567Z,18.80
2019-05-28T12:48:45.993Z,18.80
2019-05-28T12:51:14.453Z,18.70
2019-05-28T12:53:49.824Z,18.70
2019-05-28T12:56:13.050Z,18.60
2019-05-28T12:58:43.452Z,18.50
2019-05-28T13:01:11.757Z,18.60
2019-05-28T13:03:40.218Z,18.80
2019-05-28T13:06:08.806Z,18.90
2019-05-28T13:08:37.214Z,19.10
2019-05-28T13:11:05.671Z,19.10
2019-05-28T13:13:34.104Z,19.10
2019-05-28T13:16:02.540Z,19.30
2019-05-28T13:18:30.958Z,19.60
2019-05-28T13:20:59.412Z,19.70
2019-05-28T13:23:27.825Z,19.90
2019-05-28T13:25:56.276Z,19.80
2019-05-28T13:28:24.698Z,19.70
2019-05-28T13:30:53.164Z,19.50
2019-05-28T13:33:21.644Z,19.30
2019-05-28T13:35:50.152Z,19.40
2019-05-28T13:38:27.068Z,19.60
2019-05-28T13:40:48.799Z,19.70
2019-05-28T13:43:17.233Z,19.50
2019-05-28T13:45:45.686Z,19.60
2019-05-28T13:48:14.464Z,19.70
2019-05-28T13:50:42.900Z,19.70
2019-05-28T13:53:11.320Z,19.70
2019-05-28T13:55:39.764Z,19.80
2019-05-28T13:58:08.173Z,19.90
2019-05-28T14:00:36.964Z,19.60
2019-05-28T14:03:05.813Z,19.50
2019-05-28T14:05:34.430Z,19.60
2019-05-28T14:08:02.865Z,19.60
2019-05-28T14:10:31.288Z,19.70
2019-05-28T14:12:59.717Z,19.70
2019-05-28T14:15:28.180Z,19.40
2019-05-28T14:17:56.669Z,19.20
2019-05-28T14:20:25.193Z,19.10
2019-05-28T14:22:53.642Z,18.90
2019-05-28T14:25:22.116Z,18.80
2019-05-28T14:27:50.668Z,18.50
2019-05-28T14:30:20.592Z,18.20
2019-05-28T14:32:49.090Z,18.00
2019-05-28T14:35:17.877Z,17.60
2019-05-28T14:37:46.295Z,17.20
2019-05-28T14:40:15.860Z,16.70
2019-05-28T14:42:44.320Z,16.50
2019-05-28T14:45:14.318Z,16.20
2019-05-28T14:47:42.775Z,16.10
2019-05-28T14:50:11.945Z,16.00
2019-05-28T14:52:40.386Z,15.90
2019-05-28T14:55:09.361Z,15.90
2019-05-28T14:57:38.012Z,16.20
2019-05-28T15:00:08.775Z,16.70
2019-05-28T15:02:37.231Z,17.00
2019-05-28T15:05:08.996Z,17.30
2019-05-28T15:07:37.614Z,17.50
2019-05-28T15:10:07.999Z,17.50
2019-05-28T15:12:37.218Z,17.70
2019-05-28T15:15:07.075Z,17.90
2019-05-28T15:17:35.529Z,18.30
2019-05-28T15:20:09.025Z,18.50
2019-05-28T15:22:37.939Z,18.50
2019-05-28T15:25:07.719Z,18.70
2019-05-28T15:27:36.255Z,18.80
2019-05-28T15:30:08.894Z,18.70
2019-05-28T15:32:37.576Z,18.50
2019-05-28T15:35:08.028Z,18.40
2019-05-28T15:37:36.463Z,18.10
2019-05-28T15:40:08.996Z,18.10
2019-05-28T15:42:37.390Z,18.00
2019-05-28T15:45:12.262Z,18.00
2019-05-28T15:47:44.482Z,18.00
2019-05-28T15:50:12.083Z,18.00
2019-05-28T15:52:40.498Z,18.10
2019-05-28T15:55:09.909Z,18.30
2019-05-28T15:57:38.613Z,18.30
2019-05-28T16:00:08.302Z,18.50
2019-05-28T16:02:36.810Z,18.50
2019-05-28T16:05:07.216Z,18.70
2019-05-28T16:07:35.719Z,18.90
2019-05-28T16:10:06.673Z,19.30
2019-05-28T16:12:35.162Z,19.30
2019-05-28T16:15:07.757Z,19.50
2019-05-28T16:17:36.187Z,20.10
2019-05-28T16:20:07.939Z,21.00
2019-05-28T16:22:36.386Z,21.70
2019-05-28T16:25:08.612Z,21.30
2019-05-28T16:27:37.105Z,21.20
2019-05-28T16:30:10.081Z,21.60
2019-05-28T16:32:38.561Z,22.20
2019-05-28T16:35:07.646Z,22.60
2019-05-28T16:37:36.147Z,22.20
2019-05-28T16:40:15.446Z,21.60
2019-05-28T16:42:38.972Z,20.90
2019-05-28T16:45:08.746Z,20.50
2019-05-28T16:47:37.232Z,20.10
2019-05-28T16:50:13.041Z,19.60
2019-05-28T16:52:39.452Z,19.30
2019-05-28T16:55:08.825Z,18.90
2019-05-28T16:57:37.251Z,18.90
2019-05-28T17:00:07.570Z,18.70
2019-05-28T17:02:36.321Z,18.40
2019-05-28T17:05:10.630Z,18.30
2019-05-28T17:07:39.156Z,18.20
2019-05-28T17:10:08.398Z,18.10
2019-05-28T17:12:36.962Z,18.10
2019-05-28T17:15:06.451Z,18.00
2019-05-28T17:17:34.885Z,17.90
2019-05-28T17:20:07.149Z,17.90
2019-05-28T17:22:35.666Z,17.80
2019-05-28T17:25:10.757Z,18.10
2019-05-28T17:27:37.132Z,18.30
2019-05-28T17:30:18.040Z,18.50
2019-05-28T17:32:37.353Z,18.90
2019-05-28T17:35:07.016Z,19.40
2019-05-28T17:37:35.560Z,19.50
2019-05-28T17:40:05.002Z,19.20
2019-05-28T17:42:33.429Z,18.70
2019-05-28T17:45:01.874Z,18.20
2019-05-28T17:47:30.386Z,17.80
2019-05-28T17:49:58.830Z,17.50
2019-05-28T17:52:27.268Z,17.30
2019-05-28T17:54:55.680Z,17.20
2019-05-28T17:57:24.197Z,17.10
2019-05-28T17:59:52.621Z,17.10
2019-05-28T18:02:21.063Z,17.10
2019-05-28T18:04:49.552Z,17.10
2019-05-28T18:07:18.017Z,17.10
2019-05-28T18:09:46.461Z,17.00
2019-05-28T18:12:14.877Z,17.00
2019-05-28T18:14:43.312Z,16.90
2019-05-28T18:17:11.733Z,16.80
2019-05-28T18:19:40.693Z,16.70
2019-05-28T18:22:09.178Z,16.60
2019-05-28T18:24:37.632Z,16.60
2019-05-28T18:27:06.060Z,16.50
2019-05-28T18:29:34.494Z,16.40
2019-05-28T18:32:03.042Z,16.30
2019-05-28T18:34:31.591Z,16.20
2019-05-28T18:37:00.018Z,16.10
2019-05-28T18:39:28.471Z,16.10
2019-05-28T18:41:56.868Z,16.00
2019-05-28T18:44:25.320Z,16.00
2019-05-28T18:46:53.751Z,15.80
2019-05-28T18:49:22.220Z,15.80
2019-05-28T18:51:50.665Z,15.60
2019-05-28T18:54:19.121Z,15.60
2019-05-28T18:56:47.574Z,15.60
2019-05-28T18:59:16.039Z,15.60
2019-05-28T19:01:44.623Z,15.50
2019-05-28T19:04:13.050Z,15.40
2019-05-28T19:06:41.509Z,15.20
2019-05-28T19:09:11.487Z,15.00
2019-05-28T19:11:40.148Z,14.80
2019-05-28T19:14:08.609Z,14.60
2019-05-28T19:16:37.131Z,14.50
2019-05-28T19:19:05.540Z,14.40
2019-05-28T19:21:34.101Z,14.50
2019-05-28T19:24:02.588Z,14.50
2019-05-28T19:26:33.334Z,14.40
2019-05-28T19:29:01.812Z,14.40
2019-05-28T19:31:30.304Z,14.40
2019-05-28T19:33:58.737Z,14.40
2019-05-28T19:36:27.712Z,14.40
2019-05-28T19:38:58.102Z,14.40
2019-05-28T19:41:26.597Z,14.40
2019-05-28T19:43:55.028Z,14.30
2019-05-28T19:46:23.472Z,14.20
2019-05-28T19:48:51.902Z,14.20
2019-05-28T19:51:20.443Z,14.10
2019-05-28T19:53:48.864Z,14.00
2019-05-28T19:56:17.300Z,13.90
2019-05-28T19:58:45.734Z,13.80
2019-05-28T20:01:14.191Z,13.80
2019-05-28T20:03:42.622Z,13.70
2019-05-28T20:06:11.069Z,13.50
2019-05-28T20:08:39.521Z,13.30
2019-05-28T20:11:08.109Z,13.20
2019-05-28T20:13:36.576Z,13.10
2019-05-28T20:16:05.210Z,13.10
2019-05-28T20:18:33.793Z,13.10
2019-05-28T20:21:02.227Z,13.10
2019-05-28T20:23:30.699Z,13.00
2019-05-28T20:25:59.149Z,13.00
2019-05-28T20:28:27.594Z,12.90
2019-05-28T20:30:56.035Z,12.90
2019-05-28T20:33:24.553Z,12.90
2019-05-28T20:35:52.992Z,12.90
2019-05-28T20:38:21.459Z,12.80
2019-05-28T20:40:49.898Z,12.80
2019-05-28T20:43:18.373Z,12.70
2019-05-28T20:45:46.788Z,12.60
2019-05-28T20:48:15.268Z,12.60
2019-05-28T20:50:43.773Z,12.50
2019-05-28T20:53:12.272Z,12.40
2019-05-28T20:55:40.697Z,12.30
2019-05-28T20:58:09.160Z,12.30
2019-05-28T21:00:37.576Z,12.30
2019-05-28T21:03:06.017Z,12.30
2019-05-28T21:05:34.428Z,12.30
2019-05-28T21:08:02.925Z,12.20
2019-05-28T21:10:31.430Z,12.10
2019-05-28T21:12:59.881Z,12.00
2019-05-28T21:15:28.316Z,12.00
2019-05-28T21:17:57.323Z,12.00
2019-05-28T21:20:25.918Z,12.00
2019-05-28T21:22:54.334Z,12.00
2019-05-28T21:25:22.849Z,11.90
2019-05-28T21:27:52.229Z,11.80
2019-05-28T21:30:21.130Z,11.80
2019-05-28T21:32:50.659Z,11.70
2019-05-28T21:35:19.350Z,11.70
2019-05-28T21:37:47.797Z,11.70
2019-05-28T21:40:17.833Z,11.60
2019-05-28T21:42:58.586Z,11.60
2019-05-28T21:45:16.852Z,11.60
2019-05-28T21:47:45.260Z,11.60
2019-05-28T21:50:14.142Z,11.70
2019-05-28T21:52:42.594Z,11.70
2019-05-28T21:55:11.207Z,11.70
2019-05-28T21:57:39.666Z,11.80
2019-05-28T22:00:17.721Z,11.90
2019-05-28T22:02:46.146Z,11.90
2019-05-28T22:05:14.704Z,12.00
2019-05-28T22:07:43.123Z,12.00
2019-05-28T22:10:11.810Z,12.00
2019-05-28T22:12:40.220Z,12.00
2019-05-28T22:15:08.804Z,11.90
2019-05-28T22:17:37.244Z,11.90
2019-05-28T22:20:07.133Z,11.90
2019-05-28T22:22:35.542Z,11.90
2019-05-28T22:25:06.240Z,11.90
2019-05-28T22:27:34.737Z,11.90
2019-05-28T22:30:06.350Z,11.90
2019-05-28T22:32:35.204Z,11.90
2019-05-28T22:35:04.509Z,11.90
2019-05-28T22:37:32.937Z,11.90
2019-05-28T22:40:01.479Z,12.00
2019-05-28T22:42:29.983Z,12.00
2019-05-28T22:44:58.758Z,12.10
2019-05-28T22:47:27.324Z,12.20
2019-05-28T22:50:12.126Z,12.20
2019-05-28T22:52:25.984Z,12.10
2019-05-28T22:54:54.393Z,12.10
2019-05-28T22:57:22.925Z,12.10
2019-05-28T22:59:51.337Z,12.10
2019-05-28T23:02:19.770Z,12.10
2019-05-28T23:04:48.189Z,12.10
2019-05-28T23:07:16.641Z,12.10
2019-05-28T23:09:45.061Z,12.10
2019-05-28T23:12:13.560Z,12.00
2019-05-28T23:14:41.981Z,12.00
2019-05-28T23:17:10.439Z,11.90
2019-05-28T23:19:38.899Z,12.00
2019-05-28T23:22:07.339Z,12.00
2019-05-28T23:24:35.749Z,12.00
2019-05-28T23:27:05.428Z,12.10
2019-05-28T23:29:33.936Z,12.10
2019-05-28T23:32:02.377Z,12.10
2019-05-28T23:34:30.852Z,12.00
2019-05-28T23:36:59.342Z,12.00
2019-05-28T23:39:27.762Z,12.00
2019-05-28T23:41:56.170Z,12.00
2019-05-28T23:44:24.826Z,12.00
2019-05-28T23:46:53.264Z,12.10
2019-05-28T23:49:21.669Z,12.20
2019-05-28T23:51:50.085Z,12.20
2019-05-28T23:54:18.508Z,12.20
2019-05-28T23:56:46.916Z,12.30
2019-05-28T23:59:15.347Z,12.40
